Weather at London Gatwick Airport

Public forecast

Using degrees Celsius for public forecast. Weather courtesy of forecast.io.

Current aviation weather report (METAR) for London Gatwick Airport

Retrieved 2022/05/23 08:20 UTC (13 minutes ago):

EGKK 230820Z 32007KT CAVOK 15/11 Q1002

Aviation forecast (TAF) for London Gatwick Airport

Retrieved 2022/05/23 06:00 UTC (3 hours ago):

TAF EGKK 230503Z 2306/2412 30005KT 9999 SCT040 PROB30 TEMPO 2306/2311 8000 -RA TEMPO 2311/2316 7000 RA PROB30 TEMPO 2316/2324 7000 SHRA TEMPO 2400/2412 7000 SHRA PROB30 TEMPO 2400/2412 4000 +SHRA PROB30 TEMPO 2400/2407 BKN012